Quseir, Egypt
Current Conditions -  °F | °C
As of 4:00 AM on Saturday 22 Nov 2014 (Local Time) from HEMA Reporting Station
Clear Clear  
Wind Chill: 66°   Ceiling: Unl
Heat Index: 66°   Visibility: 6mi
Dew Point: 55°   Wind: 10mph
Humidity: 68%   Direction: 320°NW
Pressure: 29.97"   Gusts: NA
Location:  26.11°N, 34.28°E
Report Text: HEMA 220200Z 32009KT CAVOK 19/13 Q1015 NOSIG
Loading
Personal Weather Stations






























Interactive Weather Map New forecast layout! Learn more

10-Day Weather Forecast

Advertisements
Track Severe Weather on mobile